createdAt,value
2022-08-26T00:00:32.205Z,24.90
2022-08-26T00:01:31.446Z,24.90
2022-08-26T00:02:31.624Z,24.91
2022-08-26T00:03:31.780Z,25.00
2022-08-26T00:04:31.959Z,24.91
2022-08-26T00:05:32.108Z,25.00
2022-08-26T00:06:33.213Z,24.92
2022-08-26T00:07:32.452Z,25.01
2022-08-26T00:08:32.730Z,25.00
2022-08-26T00:09:32.760Z,25.06
2022-08-26T00:10:32.913Z,25.07
2022-08-26T00:11:33.727Z,25.01
2022-08-26T00:12:37.599Z,25.01
2022-08-26T00:13:33.498Z,24.98
2022-08-26T00:14:33.634Z,24.98
2022-08-26T00:15:33.760Z,24.94
2022-08-26T00:16:34.023Z,25.02
2022-08-26T00:17:34.720Z,24.91
2022-08-26T00:18:40.740Z,24.90
2022-08-26T00:19:35.512Z,24.88
2022-08-26T00:20:35.227Z,24.92
2022-08-26T00:21:35.718Z,24.98
2022-08-26T00:22:35.722Z,24.85
2022-08-26T00:23:35.725Z,24.85
2022-08-26T00:24:35.280Z,24.92
2022-08-26T00:25:36.219Z,24.92
2022-08-26T00:26:36.564Z,24.94
2022-08-26T00:27:35.803Z,24.83
2022-08-26T00:28:35.956Z,24.80
2022-08-26T00:29:37.762Z,24.85
2022-08-26T00:30:36.284Z,24.79
2022-08-26T00:31:36.547Z,24.85
2022-08-26T00:32:36.601Z,24.82
2022-08-26T00:33:37.729Z,24.82
2022-08-26T00:34:36.872Z,24.91
2022-08-26T00:35:37.008Z,24.80
2022-08-26T00:36:37.741Z,24.87
2022-08-26T00:37:37.331Z,24.76
2022-08-26T00:38:37.884Z,24.85
2022-08-26T00:39:37.589Z,24.83
2022-08-26T00:40:38.730Z,24.79
2022-08-26T00:41:38.732Z,24.79
2022-08-26T00:42:38.320Z,24.73
2022-08-26T00:43:47.381Z,24.71
2022-08-26T00:44:40.230Z,24.77
2022-08-26T00:45:38.800Z,24.80
2022-08-26T00:46:38.988Z,24.80
2022-08-26T00:47:40.149Z,24.73
2022-08-26T00:48:40.232Z,24.77
2022-08-26T00:49:39.484Z,24.73
2022-08-26T00:50:39.638Z,24.82
2022-08-26T00:51:39.774Z,24.82
2022-08-26T00:52:39.950Z,24.76
2022-08-26T00:53:40.122Z,24.69
2022-08-26T00:54:40.241Z,24.77
2022-08-26T00:55:40.393Z,24.76
2022-08-26T00:56:40.535Z,24.61
2022-08-26T00:57:40.731Z,24.63
2022-08-26T00:58:40.868Z,24.60
2022-08-26T00:59:41.079Z,24.68
2022-08-26T01:00:41.241Z,24.67
2022-08-26T01:01:42.239Z,24.64
2022-08-26T01:02:46.933Z,24.68
2022-08-26T01:03:43.739Z,24.68
2022-08-26T01:04:42.743Z,24.67
2022-08-26T01:05:42.119Z,24.68
2022-08-26T01:06:44.426Z,24.69
2022-08-26T01:07:42.606Z,24.60
2022-08-26T01:08:43.734Z,24.64
2022-08-26T01:09:42.987Z,24.60
2022-08-26T01:10:43.171Z,24.67
2022-08-26T01:11:43.299Z,24.63
2022-08-26T01:12:43.759Z,24.64
2022-08-26T01:13:44.239Z,24.63
2022-08-26T01:14:43.812Z,24.71
2022-08-26T01:15:44.005Z,24.67
2022-08-26T01:16:44.323Z,24.80
2022-08-26T01:17:44.436Z,24.68
2022-08-26T01:18:44.615Z,24.67
2022-08-26T01:19:45.741Z,24.61
2022-08-26T01:20:44.993Z,24.61
2022-08-26T01:21:45.133Z,24.50
2022-08-26T01:22:45.309Z,24.59
2022-08-26T01:23:45.755Z,24.47
2022-08-26T01:24:45.640Z,24.61
2022-08-26T01:25:45.841Z,24.53
2022-08-26T01:26:45.975Z,24.67
2022-08-26T01:27:46.114Z,24.57
2022-08-26T01:28:46.282Z,24.59
2022-08-26T01:29:46.411Z,24.68
2022-08-26T01:30:46.560Z,24.64
2022-08-26T01:31:47.304Z,24.61
2022-08-26T01:32:46.913Z,24.64
2022-08-26T01:33:47.079Z,24.71
2022-08-26T01:34:47.248Z,24.68
2022-08-26T01:35:48.252Z,24.68
2022-08-26T01:36:51.346Z,24.69
2022-08-26T01:37:49.751Z,24.73
2022-08-26T01:38:48.752Z,24.61
2022-08-26T01:39:48.269Z,24.71
2022-08-26T01:40:48.450Z,24.76
2022-08-26T01:41:48.760Z,24.69
2022-08-26T01:43:15.776Z,24.68
2022-08-26T01:43:48.991Z,24.68
2022-08-26T01:44:49.157Z,24.68
2022-08-26T01:45:49.393Z,24.75
2022-08-26T01:46:49.453Z,24.61
2022-08-26T01:47:49.667Z,24.61
2022-08-26T01:48:52.400Z,24.61
2022-08-26T01:49:50.873Z,24.63
2022-08-26T01:50:50.252Z,24.52
2022-08-26T01:51:51.288Z,24.52
2022-08-26T01:52:54.371Z,24.52
2022-08-26T01:53:50.714Z,24.45
2022-08-26T01:54:51.113Z,24.53
2022-08-26T01:55:51.301Z,24.49
2022-08-26T01:56:51.786Z,24.44
2022-08-26T01:57:51.310Z,24.44
2022-08-26T01:58:51.509Z,24.45
2022-08-26T01:59:51.747Z,24.39
2022-08-26T02:00:51.961Z,24.50
2022-08-26T02:01:52.746Z,24.44
2022-08-26T02:02:52.791Z,24.41
2022-08-26T02:03:52.430Z,24.29
2022-08-26T02:04:52.608Z,24.32
2022-08-26T02:05:52.714Z,24.31
2022-08-26T02:06:52.807Z,24.23
2022-08-26T02:07:53.791Z,24.19
2022-08-26T02:08:53.792Z,24.05
2022-08-26T02:09:53.288Z,24.07
2022-08-26T02:10:54.608Z,24.05
2022-08-26T02:11:54.297Z,23.97
2022-08-26T02:12:53.821Z,23.90
2022-08-26T02:13:54.810Z,23.82
2022-08-26T02:14:54.064Z,23.83
2022-08-26T02:15:54.323Z,23.80
2022-08-26T02:16:54.366Z,23.71
2022-08-26T02:17:54.518Z,23.60
2022-08-26T02:18:54.741Z,23.55
2022-08-26T02:19:54.959Z,23.50
2022-08-26T02:20:55.100Z,23.40
2022-08-26T02:21:55.355Z,23.20
2022-08-26T02:22:55.534Z,23.05
2022-08-26T02:23:56.262Z,23.04
2022-08-26T02:24:55.922Z,23.07
2022-08-26T02:25:56.080Z,22.90
2022-08-26T02:26:56.252Z,22.89
2022-08-26T02:27:56.380Z,22.84
2022-08-26T02:28:57.299Z,22.78
2022-08-26T02:29:57.301Z,22.80
2022-08-26T02:30:56.851Z,22.80
2022-08-26T02:31:57.033Z,22.77
2022-08-26T02:32:57.197Z,22.69
2022-08-26T02:33:58.303Z,22.78
2022-08-26T02:34:57.568Z,22.75
2022-08-26T02:35:57.773Z,22.50
2022-08-26T02:36:57.955Z,22.38
2022-08-26T02:37:58.803Z,22.43
2022-08-26T02:38:58.807Z,22.41
2022-08-26T02:39:58.512Z,22.50
2022-08-26T02:40:58.737Z,22.34
2022-08-26T02:41:58.874Z,22.39
2022-08-26T02:42:59.054Z,22.32
2022-08-26T02:43:59.811Z,22.16
2022-08-26T02:45:00.306Z,22.19
2022-08-26T02:46:01.970Z,22.13
2022-08-26T02:46:59.823Z,22.19
2022-08-26T02:48:00.812Z,22.13
2022-08-26T02:49:00.201Z,22.16
2022-08-26T02:50:00.340Z,22.14
2022-08-26T02:51:00.575Z,22.07
2022-08-26T02:52:00.742Z,22.04
2022-08-26T02:53:00.999Z,21.97
2022-08-26T02:54:01.806Z,21.92
2022-08-26T02:55:01.316Z,21.95
2022-08-26T02:56:01.499Z,21.91
2022-08-26T02:57:01.652Z,21.83
2022-08-26T02:58:01.820Z,21.75
2022-08-26T02:59:01.959Z,21.74
2022-08-26T03:00:02.895Z,21.63
2022-08-26T03:01:02.359Z,21.66
2022-08-26T03:02:02.509Z,21.61
2022-08-26T03:03:03.311Z,21.57
2022-08-26T03:04:02.802Z,21.71
2022-08-26T03:05:02.960Z,21.71
2022-08-26T03:06:03.098Z,21.76
2022-08-26T03:07:03.252Z,21.76
2022-08-26T03:08:03.431Z,21.83
2022-08-26T03:09:03.624Z,21.66
2022-08-26T03:10:08.514Z,21.61
2022-08-26T03:11:04.961Z,21.51
2022-08-26T03:12:05.158Z,21.42
2022-08-26T03:13:05.110Z,21.46
2022-08-26T03:14:04.478Z,21.48
2022-08-26T03:15:15.905Z,21.48
2022-08-26T03:16:05.837Z,21.50
2022-08-26T03:17:05.816Z,21.53
2022-08-26T03:18:05.819Z,21.41
2022-08-26T03:19:05.261Z,21.41
2022-08-26T03:20:05.509Z,21.39
2022-08-26T03:21:05.650Z,21.46
2022-08-26T03:22:06.818Z,21.44
2022-08-26T03:23:06.869Z,21.36
2022-08-26T03:24:06.282Z,21.36
2022-08-26T03:25:06.453Z,21.34
2022-08-26T03:26:06.611Z,21.42
2022-08-26T03:27:07.465Z,21.30
2022-08-26T03:28:06.935Z,21.32
2022-08-26T03:29:07.109Z,21.06
2022-08-26T03:30:07.274Z,21.16
2022-08-26T03:31:07.487Z,21.06
2022-08-26T03:32:07.578Z,21.09
2022-08-26T03:33:07.943Z,20.99
2022-08-26T03:34:07.942Z,20.99
2022-08-26T03:35:08.071Z,20.99
2022-08-26T03:36:08.820Z,21.01
2022-08-26T03:37:09.435Z,20.96
2022-08-26T03:38:08.558Z,20.98
2022-08-26T03:39:08.688Z,21.01
2022-08-26T03:40:08.976Z,20.84
2022-08-26T03:41:09.827Z,20.80
2022-08-26T03:42:09.371Z,20.81
2022-08-26T03:43:10.185Z,20.84
2022-08-26T03:44:09.843Z,20.79
2022-08-26T03:45:09.840Z,20.80
2022-08-26T03:46:09.986Z,20.71
2022-08-26T03:47:10.170Z,20.62
2022-08-26T03:48:10.848Z,20.72
2022-08-26T03:49:10.604Z,20.65
2022-08-26T03:50:10.739Z,20.62
2022-08-26T03:51:10.966Z,20.54
2022-08-26T03:52:11.829Z,20.62
2022-08-26T03:53:12.970Z,20.64
2022-08-26T03:54:11.472Z,20.59
2022-08-26T03:55:11.571Z,20.56
2022-08-26T03:56:11.791Z,20.49
2022-08-26T03:57:12.830Z,20.51
2022-08-26T03:58:12.118Z,20.38
2022-08-26T03:59:12.264Z,20.34
2022-08-26T04:00:12.393Z,20.31
2022-08-26T04:01:13.328Z,20.31
2022-08-26T04:02:13.335Z,20.35
2022-08-26T04:03:16.976Z,20.30
2022-08-26T04:04:15.527Z,20.25
2022-08-26T04:05:13.286Z,20.27
2022-08-26T04:06:13.532Z,20.41
2022-08-26T04:07:14.339Z,20.30
2022-08-26T04:08:13.831Z,20.33
2022-08-26T04:09:14.834Z,20.30
2022-08-26T04:10:14.216Z,20.33
2022-08-26T04:11:14.421Z,20.38
2022-08-26T04:12:15.338Z,20.33
2022-08-26T04:13:14.861Z,20.30
2022-08-26T04:14:17.564Z,20.30
2022-08-26T04:15:16.227Z,20.35
2022-08-26T04:16:15.528Z,20.35
2022-08-26T04:17:15.599Z,20.23
2022-08-26T04:18:15.821Z,20.27
2022-08-26T04:19:16.031Z,20.30
2022-08-26T04:20:16.835Z,20.28
2022-08-26T04:21:16.350Z,20.16
2022-08-26T04:22:16.519Z,20.24
2022-08-26T04:23:17.632Z,20.20
2022-08-26T04:24:17.629Z,20.15
2022-08-26T04:25:16.892Z,20.27
2022-08-26T04:26:17.848Z,20.06
2022-08-26T04:27:17.290Z,20.03
2022-08-26T04:28:18.346Z,20.10
2022-08-26T04:29:17.600Z,20.03
2022-08-26T04:30:17.751Z,19.98
2022-08-26T04:31:18.942Z,19.90
2022-08-26T04:32:18.167Z,19.90
2022-08-26T04:33:18.844Z,19.95
2022-08-26T04:34:19.480Z,19.94
2022-08-26T04:35:20.909Z,19.97
2022-08-26T04:36:20.185Z,19.91
2022-08-26T04:37:18.965Z,19.98
2022-08-26T04:38:20.143Z,20.02
2022-08-26T04:39:19.291Z,19.97
2022-08-26T04:40:19.465Z,19.93
2022-08-26T04:41:19.857Z,19.91
2022-08-26T04:42:25.867Z,19.97
2022-08-26T04:43:21.912Z,19.88
2022-08-26T04:44:20.141Z,19.86
2022-08-26T04:45:22.898Z,19.95
2022-08-26T04:46:20.538Z,19.90
2022-08-26T04:47:20.857Z,19.86
2022-08-26T04:48:20.934Z,19.80
2022-08-26T04:49:21.146Z,19.73
2022-08-26T04:50:21.311Z,19.76
2022-08-26T04:51:21.481Z,19.87
2022-08-26T04:52:22.351Z,19.84
2022-08-26T04:53:22.349Z,19.79
2022-08-26T04:54:21.918Z,19.83
2022-08-26T04:55:22.084Z,19.80
2022-08-26T04:56:23.206Z,19.86
2022-08-26T04:57:23.353Z,19.78
2022-08-26T04:58:22.590Z,19.72
2022-08-26T04:59:22.864Z,19.76
2022-08-26T05:00:23.071Z,19.68
2022-08-26T05:01:24.042Z,19.73
2022-08-26T05:02:24.377Z,19.72
2022-08-26T05:03:23.672Z,19.83
2022-08-26T05:04:23.878Z,19.75
2022-08-26T05:05:25.027Z,19.87
2022-08-26T05:06:24.178Z,19.84
2022-08-26T05:07:24.387Z,19.83
2022-08-26T05:08:24.540Z,19.90
2022-08-26T05:09:24.771Z,19.84
2022-08-26T05:10:24.890Z,19.88
2022-08-26T05:11:25.147Z,19.97
2022-08-26T05:12:25.862Z,19.93
2022-08-26T05:13:25.493Z,20.00
2022-08-26T05:14:25.648Z,20.08
2022-08-26T05:15:26.360Z,20.24
2022-08-26T05:16:26.035Z,20.23
2022-08-26T05:17:26.198Z,20.31
2022-08-26T05:18:26.328Z,20.42
2022-08-26T05:19:27.966Z,20.41
2022-08-26T05:20:26.783Z,20.56
2022-08-26T05:21:26.904Z,20.61
2022-08-26T05:22:27.089Z,20.54
2022-08-26T05:23:27.335Z,20.62
2022-08-26T05:24:27.557Z,20.76
2022-08-26T05:25:27.877Z,20.71
2022-08-26T05:26:27.867Z,20.71
2022-08-26T05:27:28.897Z,20.74
2022-08-26T05:28:28.860Z,20.74
2022-08-26T05:29:28.343Z,20.80
2022-08-26T05:30:28.597Z,20.81
2022-08-26T05:31:28.891Z,20.87
2022-08-26T05:32:28.927Z,20.79
2022-08-26T05:33:29.098Z,20.79
2022-08-26T05:34:30.323Z,20.83
2022-08-26T05:35:29.392Z,20.90
2022-08-26T05:36:29.579Z,20.84
2022-08-26T05:37:29.878Z,20.90
2022-08-26T05:38:30.131Z,20.91
2022-08-26T05:39:30.117Z,20.86
2022-08-26T05:40:30.330Z,20.89
2022-08-26T05:41:34.376Z,20.95
2022-08-26T05:42:31.666Z,20.95
2022-08-26T05:43:31.370Z,20.89
2022-08-26T05:44:53.609Z,20.96
2022-08-26T05:45:32.868Z,20.93
2022-08-26T05:46:32.408Z,20.93
2022-08-26T05:47:31.671Z,20.89
2022-08-26T05:48:31.885Z,20.89
2022-08-26T05:49:32.033Z,20.87
2022-08-26T05:50:32.875Z,20.91
2022-08-26T05:51:32.380Z,20.99
2022-08-26T05:52:32.529Z,20.99
2022-08-26T05:53:32.690Z,21.02
2022-08-26T05:54:32.848Z,21.08
2022-08-26T05:55:32.974Z,21.19
2022-08-26T05:56:33.133Z,21.11
2022-08-26T05:57:36.315Z,21.06
2022-08-26T05:58:34.495Z,21.17
2022-08-26T05:59:33.620Z,21.19
2022-08-26T06:00:33.789Z,21.17
2022-08-26T06:01:35.999Z,21.29
2022-08-26T06:02:34.106Z,21.17
2022-08-26T06:03:34.268Z,21.13
2022-08-26T06:04:34.426Z,21.01
2022-08-26T06:05:39.201Z,21.02
2022-08-26T06:06:35.887Z,21.02
2022-08-26T06:07:34.980Z,20.99
2022-08-26T06:08:35.874Z,20.99
2022-08-26T06:09:35.329Z,21.04
2022-08-26T06:10:35.493Z,21.06
2022-08-26T06:11:35.650Z,21.16
2022-08-26T06:12:36.381Z,21.29
2022-08-26T06:13:35.895Z,21.38
2022-08-26T06:14:36.410Z,21.29
2022-08-26T06:15:37.334Z,21.36
2022-08-26T06:16:36.496Z,21.39
2022-08-26T06:17:37.383Z,21.35
2022-08-26T06:18:36.908Z,21.36
2022-08-26T06:19:37.400Z,21.39
2022-08-26T06:20:37.879Z,21.50
2022-08-26T06:21:37.395Z,21.48
2022-08-26T06:22:37.594Z,21.38
2022-08-26T06:23:37.736Z,21.50
2022-08-26T06:24:37.966Z,21.46
2022-08-26T06:25:38.132Z,21.45
2022-08-26T06:26:38.279Z,21.35
2022-08-26T06:27:39.386Z,21.27
2022-08-26T06:28:38.649Z,21.30
2022-08-26T06:29:38.851Z,21.30
2022-08-26T06:30:39.034Z,21.14
2022-08-26T06:31:40.013Z,21.09
2022-08-26T06:32:39.885Z,21.16
2022-08-26T06:33:39.541Z,21.09
2022-08-26T06:34:39.895Z,21.06
2022-08-26T06:35:39.925Z,20.99
2022-08-26T06:36:40.072Z,20.93
2022-08-26T06:37:40.236Z,20.90
2022-08-26T06:38:41.389Z,20.93
2022-08-26T06:39:41.302Z,20.83
2022-08-26T06:40:41.387Z,20.86
2022-08-26T06:41:43.367Z,20.86
2022-08-26T06:42:42.106Z,20.74
2022-08-26T06:43:41.323Z,20.79
2022-08-26T06:44:41.498Z,20.79
2022-08-26T06:45:42.388Z,20.74
2022-08-26T06:46:41.821Z,20.84
2022-08-26T06:47:42.400Z,20.71
2022-08-26T06:48:42.170Z,20.77
2022-08-26T06:49:42.336Z,20.80
2022-08-26T06:50:42.464Z,20.93
2022-08-26T06:51:42.630Z,20.95
2022-08-26T06:52:42.828Z,20.95
2022-08-26T06:53:42.988Z,20.98
2022-08-26T06:54:43.164Z,20.99
2022-08-26T06:55:43.319Z,20.99
2022-08-26T06:56:43.512Z,20.84
2022-08-26T06:57:44.400Z,20.79
2022-08-26T06:58:43.820Z,20.76
2022-08-26T06:59:44.914Z,20.80
2022-08-26T07:00:47.366Z,20.80
2022-08-26T07:01:45.125Z,20.74
2022-08-26T07:02:46.227Z,20.81
2022-08-26T07:03:44.666Z,20.91
2022-08-26T07:04:44.780Z,20.91
2022-08-26T07:05:45.900Z,20.86
2022-08-26T07:06:45.147Z,20.95
2022-08-26T07:07:45.391Z,20.93
2022-08-26T07:08:46.402Z,20.96
2022-08-26T07:09:45.679Z,20.96
2022-08-26T07:10:46.395Z,20.99
2022-08-26T07:11:46.899Z,21.05
2022-08-26T07:12:47.210Z,21.14
2022-08-26T07:13:46.456Z,21.21
2022-08-26T07:14:47.485Z,21.20
2022-08-26T07:15:46.875Z,21.16
2022-08-26T07:16:48.024Z,21.24
2022-08-26T07:17:47.257Z,21.26
2022-08-26T07:18:48.399Z,21.27
2022-08-26T07:19:47.912Z,21.35
2022-08-26T07:20:47.866Z,21.30
2022-08-26T07:21:48.020Z,21.38
2022-08-26T07:22:48.165Z,21.51
2022-08-26T07:23:48.348Z,21.53
2022-08-26T07:24:48.598Z,21.51
2022-08-26T07:25:48.762Z,21.46
2022-08-26T07:26:48.933Z,21.48
2022-08-26T07:27:54.315Z,21.51
2022-08-26T07:28:50.241Z,21.60
2022-08-26T07:29:49.417Z,21.54
2022-08-26T07:30:49.521Z,21.57
2022-08-26T07:31:50.416Z,21.59
2022-08-26T07:32:49.796Z,21.54
2022-08-26T07:33:49.970Z,21.50
2022-08-26T07:34:50.154Z,21.61
2022-08-26T07:35:50.424Z,21.53
2022-08-26T07:36:51.408Z,21.50
2022-08-26T07:37:55.046Z,21.46
2022-08-26T07:38:53.916Z,21.48
2022-08-26T07:39:51.969Z,21.57
2022-08-26T07:40:51.391Z,21.60
2022-08-26T07:41:52.419Z,21.59
2022-08-26T07:42:51.767Z,21.67
2022-08-26T07:43:52.932Z,21.67
2022-08-26T07:44:52.211Z,21.56
2022-08-26T07:45:52.488Z,21.74
2022-08-26T07:46:53.180Z,21.66
2022-08-26T07:47:52.670Z,21.75
2022-08-26T07:48:52.835Z,21.72
2022-08-26T07:49:53.023Z,21.83
2022-08-26T07:50:53.240Z,21.76
2022-08-26T07:51:54.416Z,21.76
2022-08-26T07:52:54.416Z,21.76
2022-08-26T07:53:53.800Z,21.81
2022-08-26T07:54:53.927Z,21.72
2022-08-26T07:55:54.071Z,21.75
2022-08-26T07:56:54.194Z,21.74
2022-08-26T07:57:54.401Z,21.79
2022-08-26T07:58:54.544Z,21.88
2022-08-26T07:59:55.486Z,21.91
2022-08-26T08:00:54.844Z,21.90
2022-08-26T08:01:55.136Z,21.98
2022-08-26T08:02:55.267Z,21.95
2022-08-26T08:03:55.931Z,22.06
2022-08-26T08:04:56.464Z,21.91
2022-08-26T08:05:55.828Z,21.74
2022-08-26T08:06:56.035Z,21.74
2022-08-26T08:08:27.343Z,21.72
2022-08-26T08:08:57.424Z,21.85
2022-08-26T08:09:56.587Z,21.92
2022-08-26T08:10:57.417Z,21.98
2022-08-26T08:11:57.058Z,22.09
2022-08-26T08:12:57.922Z,22.02
2022-08-26T08:13:57.360Z,22.17
2022-08-26T08:14:58.426Z,22.35
2022-08-26T08:15:58.428Z,22.28
2022-08-26T08:16:57.874Z,22.46
2022-08-26T08:18:00.669Z,22.54
2022-08-26T08:18:59.924Z,22.62
2022-08-26T08:19:58.923Z,22.62
2022-08-26T08:21:10.863Z,22.62
2022-08-26T08:22:00.654Z,22.60
2022-08-26T08:22:58.847Z,22.69
2022-08-26T08:23:59.948Z,22.80
2022-08-26T08:24:59.242Z,22.60
2022-08-26T08:25:59.410Z,22.49
2022-08-26T08:26:59.609Z,22.50
2022-08-26T08:27:59.798Z,22.50
2022-08-26T08:28:59.922Z,22.71
2022-08-26T08:30:00.928Z,22.34
2022-08-26T08:31:00.212Z,22.47
2022-08-26T08:32:00.969Z,22.38
2022-08-26T08:33:01.425Z,22.27
2022-08-26T08:34:00.741Z,22.22
2022-08-26T08:35:01.427Z,22.12
2022-08-26T08:36:01.999Z,22.22
2022-08-26T08:37:01.215Z,22.23
2022-08-26T08:38:01.945Z,22.10
2022-08-26T08:39:01.943Z,22.31
2022-08-26T08:40:01.738Z,22.32
2022-08-26T08:41:03.448Z,22.49
2022-08-26T08:42:02.036Z,22.57
2022-08-26T08:43:02.936Z,22.68
2022-08-26T08:44:02.443Z,22.84
2022-08-26T08:45:02.940Z,22.84
2022-08-26T08:46:02.964Z,22.82
2022-08-26T08:47:03.043Z,22.87
2022-08-26T08:48:03.328Z,22.80
2022-08-26T08:49:03.424Z,22.57
2022-08-26T08:50:03.949Z,22.60
2022-08-26T08:51:03.840Z,22.64
2022-08-26T08:52:04.186Z,22.68
2022-08-26T08:53:05.782Z,22.77
2022-08-26T08:54:04.934Z,22.90
2022-08-26T08:55:04.573Z,23.08
2022-08-26T08:56:05.691Z,23.11
2022-08-26T08:57:04.811Z,23.17
2022-08-26T08:58:05.501Z,23.26
2022-08-26T08:59:05.031Z,23.27
2022-08-26T09:00:05.210Z,23.50
2022-08-26T09:01:05.497Z,23.65
2022-08-26T09:02:05.605Z,23.89
2022-08-26T09:03:06.436Z,24.16
2022-08-26T09:04:05.914Z,24.05
2022-08-26T09:05:06.161Z,24.14
2022-08-26T09:06:06.455Z,24.14
2022-08-26T09:07:06.506Z,24.24
2022-08-26T09:08:06.817Z,24.16
2022-08-26T09:09:07.446Z,24.19
2022-08-26T09:10:07.937Z,24.16
2022-08-26T09:11:07.297Z,24.23
2022-08-26T09:12:07.412Z,24.16
2022-08-26T09:13:08.444Z,24.14
2022-08-26T09:14:07.859Z,24.29
2022-08-26T09:15:08.004Z,24.34
2022-08-26T09:16:08.179Z,24.52
2022-08-26T09:17:08.368Z,24.44
2022-08-26T09:18:10.905Z,24.49
2022-08-26T09:19:08.728Z,24.35
2022-08-26T09:20:09.947Z,24.22
2022-08-26T09:21:09.102Z,24.14
2022-08-26T09:22:10.132Z,24.10
2022-08-26T09:23:09.686Z,24.12
2022-08-26T09:24:11.248Z,24.12
2022-08-26T09:25:11.219Z,24.27
2022-08-26T09:26:10.016Z,24.29
2022-08-26T09:27:11.513Z,24.32
2022-08-26T09:28:10.360Z,24.37
2022-08-26T09:29:10.983Z,24.23
2022-08-26T09:30:11.476Z,24.24
2022-08-26T09:31:11.484Z,24.32
2022-08-26T09:32:12.100Z,24.35
2022-08-26T09:33:12.053Z,24.42
2022-08-26T09:34:11.458Z,24.44
2022-08-26T09:35:11.966Z,24.50
2022-08-26T09:36:11.838Z,24.50
2022-08-26T09:37:12.002Z,24.45
2022-08-26T09:38:12.296Z,24.35
2022-08-26T09:39:12.382Z,24.35
2022-08-26T09:40:12.996Z,24.41
2022-08-26T09:41:12.725Z,24.35
2022-08-26T09:42:12.974Z,24.29
2022-08-26T09:43:13.126Z,24.29
2022-08-26T09:44:14.605Z,24.23
2022-08-26T09:45:13.466Z,24.32
2022-08-26T09:46:13.797Z,24.34
2022-08-26T09:47:14.969Z,24.37
2022-08-26T09:48:14.063Z,24.26
2022-08-26T09:49:15.012Z,24.12
2022-08-26T09:50:14.956Z,23.98
2022-08-26T09:51:14.598Z,24.05
2022-08-26T09:52:14.967Z,23.95
2022-08-26T09:53:14.997Z,24.05
2022-08-26T09:54:15.150Z,24.08
2022-08-26T09:55:16.963Z,24.07
2022-08-26T09:56:15.448Z,24.17
2022-08-26T09:57:15.623Z,24.19
2022-08-26T09:58:15.772Z,24.31
2022-08-26T09:59:16.459Z,24.26
2022-08-26T10:00:16.222Z,24.13
2022-08-26T10:01:16.352Z,24.31
2022-08-26T10:02:17.449Z,24.31
2022-08-26T10:03:17.377Z,24.12
2022-08-26T10:04:16.884Z,24.16
2022-08-26T10:05:17.966Z,24.17
2022-08-26T10:06:17.258Z,24.27
2022-08-26T10:07:17.513Z,24.29
2022-08-26T10:08:17.660Z,24.34
2022-08-26T10:09:18.030Z,24.39
2022-08-26T10:10:17.931Z,24.29
2022-08-26T10:11:18.969Z,24.41
2022-08-26T10:12:18.351Z,24.38
2022-08-26T10:13:18.540Z,24.41
2022-08-26T10:14:23.336Z,24.47
2022-08-26T10:15:19.999Z,24.47
2022-08-26T10:16:19.136Z,24.42
2022-08-26T10:17:19.203Z,24.22
2022-08-26T10:18:19.386Z,24.29
2022-08-26T10:19:20.470Z,24.24
2022-08-26T10:20:23.160Z,24.32
2022-08-26T10:21:20.022Z,24.49
2022-08-26T10:22:20.971Z,24.52
2022-08-26T10:23:20.968Z,24.24
2022-08-26T10:24:20.972Z,24.37
2022-08-26T10:25:20.654Z,24.37
2022-08-26T10:26:20.757Z,24.32
2022-08-26T10:27:21.988Z,24.19
2022-08-26T10:28:21.214Z,24.34
2022-08-26T10:29:21.369Z,24.35
2022-08-26T10:30:21.511Z,24.50
2022-08-26T10:31:23.031Z,24.68
2022-08-26T10:32:22.886Z,24.91
2022-08-26T10:33:22.028Z,24.98
2022-08-26T10:34:22.280Z,25.00
2022-08-26T10:35:22.434Z,25.01
2022-08-26T10:36:22.986Z,24.97
2022-08-26T10:37:22.770Z,24.91
2022-08-26T10:38:22.919Z,24.87
2022-08-26T10:39:23.089Z,24.76
2022-08-26T10:40:23.343Z,24.60
2022-08-26T10:41:23.411Z,24.60
2022-08-26T10:42:23.540Z,24.54
2022-08-26T10:43:25.639Z,24.53
2022-08-26T10:44:24.483Z,24.37
2022-08-26T10:45:24.083Z,24.16
2022-08-26T10:46:27.402Z,24.20
2022-08-26T10:47:24.984Z,24.16
2022-08-26T10:48:25.480Z,24.12
2022-08-26T10:49:25.834Z,24.10
2022-08-26T10:50:25.493Z,24.07
2022-08-26T10:51:25.249Z,24.13
2022-08-26T10:52:29.390Z,24.31
2022-08-26T10:53:26.441Z,24.26
2022-08-26T10:54:26.486Z,24.29
2022-08-26T10:55:26.500Z,24.35
2022-08-26T10:56:26.124Z,24.52
2022-08-26T10:57:26.287Z,24.64
2022-08-26T10:58:27.530Z,24.91
2022-08-26T10:59:29.392Z,25.13
2022-08-26T11:00:27.604Z,25.24
2022-08-26T11:01:28.031Z,25.22
2022-08-26T11:02:27.238Z,25.25
2022-08-26T11:03:27.476Z,25.32
2022-08-26T11:04:28.529Z,25.44
2022-08-26T11:05:27.997Z,25.42
2022-08-26T11:06:28.499Z,25.31
2022-08-26T11:07:28.499Z,25.10
2022-08-26T11:08:28.990Z,24.92
2022-08-26T11:09:28.792Z,24.77
2022-08-26T11:10:29.490Z,24.77
2022-08-26T11:11:28.856Z,24.68
2022-08-26T11:12:29.002Z,24.56
2022-08-26T11:13:30.000Z,24.49
2022-08-26T11:14:31.441Z,24.42
2022-08-26T11:15:31.469Z,24.32
2022-08-26T11:16:29.716Z,24.34
2022-08-26T11:17:29.910Z,24.38
2022-08-26T11:18:30.067Z,24.31
2022-08-26T11:19:50.563Z,24.29
2022-08-26T11:20:32.468Z,24.16
2022-08-26T11:21:31.499Z,24.05
2022-08-26T11:22:30.759Z,23.80
2022-08-26T11:23:31.494Z,23.80
2022-08-26T11:24:32.016Z,23.65
2022-08-26T11:25:31.280Z,23.79
2022-08-26T11:26:36.281Z,23.80
2022-08-26T11:27:33.016Z,23.80
2022-08-26T11:28:31.852Z,23.80
2022-08-26T11:29:32.091Z,23.76
2022-08-26T11:30:32.245Z,23.90
2022-08-26T11:31:33.021Z,23.87
2022-08-26T11:32:32.614Z,23.89
2022-08-26T11:33:32.761Z,24.02
2022-08-26T11:34:32.914Z,23.98
2022-08-26T11:35:34.040Z,23.98
2022-08-26T11:36:34.033Z,23.82
2022-08-26T11:37:33.387Z,23.89
2022-08-26T11:38:34.009Z,23.90
2022-08-26T11:39:36.685Z,23.89
2022-08-26T11:40:33.958Z,24.02
2022-08-26T11:41:34.521Z,24.10
2022-08-26T11:42:35.004Z,24.17
2022-08-26T11:43:34.521Z,24.13
2022-08-26T11:44:35.014Z,24.07
2022-08-26T11:45:34.880Z,24.14
2022-08-26T11:46:35.501Z,24.17
2022-08-26T11:47:35.504Z,24.19
2022-08-26T11:48:37.006Z,24.24
2022-08-26T11:49:35.514Z,24.29
2022-08-26T11:50:36.502Z,24.37
2022-08-26T11:51:40.056Z,24.38
2022-08-26T11:52:36.925Z,24.23
2022-08-26T11:53:36.042Z,24.20
2022-08-26T11:54:37.004Z,24.10
2022-08-26T11:55:36.378Z,24.16
2022-08-26T11:56:36.548Z,24.16
2022-08-26T11:57:36.769Z,24.20
2022-08-26T11:58:36.893Z,24.23
2022-08-26T11:59:38.009Z,24.32
2022-08-26T12:00:37.303Z,24.39
2022-08-26T12:01:38.009Z,24.50
2022-08-26T12:02:37.687Z,24.41
2022-08-26T12:03:37.964Z,24.41
2022-08-26T12:04:38.186Z,24.39
2022-08-26T12:05:38.519Z,24.45
2022-08-26T12:06:42.003Z,24.32
2022-08-26T12:07:42.627Z,24.31
2022-08-26T12:08:38.840Z,24.14
2022-08-26T12:09:40.009Z,23.90
2022-08-26T12:10:40.014Z,23.94
2022-08-26T12:11:39.988Z,23.86
2022-08-26T12:12:39.634Z,23.89
2022-08-26T12:13:39.803Z,23.83
2022-08-26T12:14:40.526Z,23.80
2022-08-26T12:15:40.172Z,23.71
2022-08-26T12:16:40.365Z,23.80
2022-08-26T12:17:40.799Z,23.79
2022-08-26T12:18:41.025Z,23.79
2022-08-26T12:19:41.518Z,23.80
2022-08-26T12:20:41.524Z,23.62
2022-08-26T12:21:41.219Z,23.68
2022-08-26T12:22:41.425Z,23.65
2022-08-26T12:23:43.552Z,23.71
2022-08-26T12:24:41.906Z,23.80
2022-08-26T12:25:42.042Z,23.75
2022-08-26T12:26:42.187Z,23.82
2022-08-26T12:27:43.015Z,23.77
2022-08-26T12:28:42.528Z,23.85
2022-08-26T12:29:42.678Z,23.75
2022-08-26T12:30:43.781Z,23.70
2022-08-26T12:31:43.056Z,23.71
2022-08-26T12:32:57.190Z,23.62
2022-08-26T12:33:44.378Z,23.67
2022-08-26T12:34:43.512Z,23.62
2022-08-26T12:35:44.033Z,23.76
2022-08-26T12:36:43.875Z,23.77
2022-08-26T12:37:44.112Z,23.76
2022-08-26T12:38:45.021Z,23.82
2022-08-26T12:39:44.544Z,23.76
2022-08-26T12:40:45.035Z,23.83
2022-08-26T12:41:44.776Z,23.76
2022-08-26T12:42:45.532Z,23.75
2022-08-26T12:43:46.028Z,23.82
2022-08-26T12:44:53.216Z,23.86
2022-08-26T12:45:46.682Z,23.94
2022-08-26T12:46:49.732Z,23.76
2022-08-26T12:47:46.963Z,23.77
2022-08-26T12:48:46.195Z,23.76
2022-08-26T12:49:46.321Z,23.64
2022-08-26T12:50:46.539Z,23.60
2022-08-26T12:51:46.675Z,23.55
2022-08-26T12:52:46.845Z,23.65
2022-08-26T12:53:47.024Z,23.70
2022-08-26T12:54:47.174Z,23.65